createdAt,value
2023-01-06T00:02:00.258Z,7.20
2023-01-06T00:04:29.788Z,7.20
2023-01-06T00:06:59.532Z,7.10
2023-01-06T00:09:29.323Z,7.20
2023-01-06T00:11:58.834Z,7.20
2023-01-06T00:14:28.279Z,7.10
2023-01-06T00:16:57.785Z,7.10
2023-01-06T00:19:27.290Z,7.00
2023-01-06T00:21:56.807Z,7.00
2023-01-06T00:24:26.280Z,6.90
2023-01-06T00:26:55.709Z,6.90
2023-01-06T00:29:25.235Z,7.00
2023-01-06T00:31:55.362Z,7.00
2023-01-06T00:34:24.791Z,7.00
2023-01-06T00:36:54.246Z,6.80
2023-01-06T00:39:24.413Z,6.70
2023-01-06T00:42:06.907Z,6.70
2023-01-06T00:44:39.261Z,6.80
2023-01-06T00:47:11.583Z,6.70
2023-01-06T00:49:41.190Z,6.50
2023-01-06T00:52:10.956Z,6.40
2023-01-06T00:54:41.167Z,6.10
2023-01-06T00:57:11.141Z,6.30
2023-01-06T00:59:42.504Z,6.50
2023-01-06T01:02:12.106Z,6.70
2023-01-06T01:04:41.952Z,6.70
2023-01-06T01:07:12.888Z,6.70
2023-01-06T01:09:42.300Z,6.70
2023-01-06T01:12:13.128Z,6.70
2023-01-06T01:14:48.608Z,6.70
2023-01-06T01:17:21.704Z,6.70
2023-01-06T01:19:55.456Z,6.70
2023-01-06T01:22:27.740Z,6.60
2023-01-06T01:24:57.330Z,6.60
2023-01-06T01:27:26.786Z,6.70
2023-01-06T01:29:56.243Z,6.60
2023-01-06T01:32:25.778Z,6.60
2023-01-06T01:34:55.252Z,6.70
2023-01-06T01:37:24.801Z,6.70
2023-01-06T01:39:54.330Z,6.60
2023-01-06T01:42:23.877Z,6.40
2023-01-06T01:44:54.826Z,6.50
2023-01-06T01:47:48.217Z,6.40
2023-01-06T01:50:18.577Z,6.30
2023-01-06T01:52:50.986Z,6.20
2023-01-06T01:55:21.816Z,6.20
2023-01-06T01:57:57.152Z,6.20
2023-01-06T02:00:27.936Z,6.30
2023-01-06T02:02:59.031Z,6.20
2023-01-06T02:05:31.250Z,6.20
2023-01-06T02:08:04.643Z,6.10
2023-01-06T02:10:34.149Z,6.10
2023-01-06T02:13:04.478Z,6.00
2023-01-06T02:15:35.535Z,6.00
2023-01-06T02:18:20.124Z,6.00
2023-01-06T02:20:56.921Z,6.00
2023-01-06T02:23:42.165Z,5.80
2023-01-06T02:26:13.007Z,5.80
2023-01-06T02:29:14.883Z,5.80
2023-01-06T02:31:56.423Z,5.90
2023-01-06T02:34:48.937Z,6.10
2023-01-06T02:37:42.553Z,6.00
2023-01-06T02:40:21.038Z,6.00
2023-01-06T02:43:13.232Z,6.00
2023-01-06T02:45:46.132Z,6.10
2023-01-06T02:48:18.637Z,5.70
2023-01-06T02:51:04.727Z,5.40
2023-01-06T02:53:46.304Z,5.70
2023-01-06T02:56:16.587Z,5.90
2023-01-06T02:58:51.893Z,6.00
2023-01-06T03:01:28.086Z,5.90
2023-01-06T03:04:00.673Z,5.60
2023-01-06T03:06:32.997Z,5.80
2023-01-06T03:09:02.723Z,6.00
2023-01-06T03:11:36.040Z,5.80
2023-01-06T03:14:26.572Z,6.00
2023-01-06T03:16:57.577Z,5.50
2023-01-06T03:19:28.058Z,5.80
2023-01-06T03:21:59.925Z,5.90
2023-01-06T03:24:30.561Z,6.00
2023-01-06T03:27:00.677Z,6.00
2023-01-06T03:29:30.242Z,5.90
2023-01-06T03:32:06.690Z,5.80
2023-01-06T03:34:54.131Z,5.90
2023-01-06T03:37:28.024Z,5.90
2023-01-06T03:40:25.078Z,6.00
2023-01-06T03:43:13.595Z,6.00
2023-01-06T03:45:59.491Z,6.00
2023-01-06T03:48:58.619Z,5.90
2023-01-06T03:51:46.733Z,5.60
2023-01-06T03:54:35.987Z,5.90
2023-01-06T03:57:09.180Z,5.80
2023-01-06T03:59:45.147Z,5.80
2023-01-06T04:02:16.282Z,6.00
2023-01-06T04:04:45.913Z,6.00
2023-01-06T04:07:15.415Z,5.90
2023-01-06T04:09:46.479Z,5.90
2023-01-06T04:12:33.694Z,6.00
2023-01-06T04:15:03.342Z,6.00
2023-01-06T04:17:33.889Z,5.90
2023-01-06T04:20:04.770Z,5.90
2023-01-06T04:22:35.496Z,5.80
2023-01-06T04:25:07.611Z,6.00
2023-01-06T04:27:38.135Z,6.20
2023-01-06T04:30:08.787Z,6.10
2023-01-06T04:32:40.047Z,6.00
2023-01-06T04:35:11.562Z,6.10
2023-01-06T04:37:41.741Z,6.10
2023-01-06T04:40:12.442Z,6.20
2023-01-06T04:42:59.764Z,6.20
2023-01-06T04:45:30.126Z,6.00
2023-01-06T04:48:00.042Z,5.90
2023-01-06T04:50:29.449Z,6.00
2023-01-06T04:52:59.316Z,6.10
2023-01-06T04:55:28.867Z,6.10
2023-01-06T04:57:58.368Z,6.30
2023-01-06T05:00:27.990Z,5.80
2023-01-06T05:02:57.688Z,6.00
2023-01-06T05:05:27.134Z,6.00
2023-01-06T05:07:57.506Z,5.90
2023-01-06T05:10:26.948Z,6.00
2023-01-06T05:12:56.372Z,6.00
2023-01-06T05:15:26.114Z,6.00
2023-01-06T05:17:55.994Z,6.00
2023-01-06T05:20:25.440Z,6.00
2023-01-06T05:22:54.885Z,6.00
2023-01-06T05:25:24.391Z,6.10
2023-01-06T05:27:53.833Z,6.30
2023-01-06T05:30:23.318Z,6.30
2023-01-06T05:32:52.760Z,6.10
2023-01-06T05:35:22.206Z,6.10
2023-01-06T05:37:51.676Z,6.20
2023-01-06T05:40:21.200Z,6.30
2023-01-06T05:42:52.480Z,6.20
2023-01-06T05:45:22.356Z,6.00
2023-01-06T05:47:52.065Z,6.10
2023-01-06T05:50:21.561Z,6.20
2023-01-06T05:52:52.901Z,6.20
2023-01-06T05:55:22.378Z,6.30
2023-01-06T05:57:51.813Z,6.30
2023-01-06T06:00:21.410Z,6.30
2023-01-06T06:02:51.746Z,6.30
2023-01-06T06:05:21.141Z,6.40
2023-01-06T06:07:57.939Z,6.30
2023-01-06T06:10:27.533Z,6.30
2023-01-06T06:12:56.963Z,6.30
2023-01-06T06:15:26.419Z,6.30
2023-01-06T06:17:55.844Z,6.40
2023-01-06T06:20:27.688Z,6.50
2023-01-06T06:22:57.101Z,6.50
2023-01-06T06:25:27.061Z,6.40
2023-01-06T06:28:00.436Z,6.50
2023-01-06T06:30:29.390Z,6.50
2023-01-06T06:32:58.766Z,6.40
2023-01-06T06:35:28.224Z,6.30
2023-01-06T06:37:57.788Z,6.30
2023-01-06T06:40:27.656Z,6.50
2023-01-06T06:42:57.828Z,6.50
2023-01-06T06:45:27.361Z,6.50
2023-01-06T06:47:57.714Z,6.50
2023-01-06T06:50:27.193Z,6.50
2023-01-06T06:52:57.039Z,6.60
2023-01-06T06:55:26.523Z,6.60
2023-01-06T06:57:56.207Z,6.60
2023-01-06T07:00:26.340Z,6.60
2023-01-06T07:02:55.823Z,6.60
2023-01-06T07:05:26.233Z,6.50
2023-01-06T07:07:55.725Z,6.60
2023-01-06T07:10:25.284Z,6.60
2023-01-06T07:12:55.686Z,6.60
2023-01-06T07:15:25.107Z,6.60
2023-01-06T07:17:54.568Z,6.60
2023-01-06T07:20:24.388Z,6.60
2023-01-06T07:22:53.838Z,6.60
2023-01-06T07:25:25.324Z,6.60
2023-01-06T07:27:56.795Z,6.70
2023-01-06T07:30:29.205Z,6.60
2023-01-06T07:32:58.772Z,6.60
2023-01-06T07:35:28.363Z,6.60
2023-01-06T07:38:06.445Z,6.60
2023-01-06T07:40:37.205Z,6.60
2023-01-06T07:43:10.130Z,6.50
2023-01-06T07:45:39.695Z,6.60
2023-01-06T07:48:10.834Z,6.60
2023-01-06T07:50:40.283Z,6.60
2023-01-06T07:53:11.395Z,6.60
2023-01-06T07:55:43.342Z,6.60
2023-01-06T07:58:12.760Z,6.70
2023-01-06T08:00:42.259Z,6.80
2023-01-06T08:03:13.330Z,6.80
2023-01-06T08:05:44.217Z,6.80
2023-01-06T08:08:13.810Z,6.80
2023-01-06T08:10:44.602Z,6.90
2023-01-06T08:13:14.369Z,6.90
2023-01-06T08:15:43.824Z,6.90
2023-01-06T08:18:14.007Z,6.90
2023-01-06T08:20:44.345Z,6.80
2023-01-06T08:23:13.807Z,6.80
2023-01-06T08:25:43.299Z,6.90
2023-01-06T08:28:13.625Z,7.00
2023-01-06T08:30:44.386Z,6.90
2023-01-06T08:33:15.558Z,6.90
2023-01-06T08:35:46.620Z,6.90
2023-01-06T08:38:16.518Z,7.00
2023-01-06T08:40:46.041Z,7.00
2023-01-06T08:43:15.520Z,7.00
2023-01-06T08:45:45.061Z,7.00
2023-01-06T08:48:14.572Z,7.00
2023-01-06T08:50:44.351Z,7.00
2023-01-06T08:53:15.040Z,7.00
2023-01-06T08:55:45.814Z,7.00
2023-01-06T08:58:15.793Z,7.10
2023-01-06T09:00:45.237Z,7.10
2023-01-06T09:03:14.660Z,7.00
2023-01-06T09:05:44.309Z,7.10
2023-01-06T09:08:13.732Z,7.20
2023-01-06T09:10:43.159Z,7.20
2023-01-06T09:13:12.785Z,7.20
2023-01-06T09:15:45.353Z,7.30
2023-01-06T09:18:15.040Z,7.40
2023-01-06T09:20:44.477Z,7.50
2023-01-06T09:23:14.651Z,7.50
2023-01-06T09:25:44.236Z,7.60
2023-01-06T09:28:14.925Z,7.60
2023-01-06T09:30:47.086Z,7.60
2023-01-06T09:33:17.351Z,7.60
2023-01-06T09:35:47.689Z,7.60
2023-01-06T09:38:18.776Z,7.80
2023-01-06T09:41:03.276Z,7.80
2023-01-06T09:43:35.983Z,7.80
2023-01-06T09:46:06.990Z,7.90
2023-01-06T09:48:40.078Z,8.00
2023-01-06T09:51:11.200Z,8.00
2023-01-06T09:53:43.603Z,8.10
2023-01-06T09:56:16.116Z,8.10
2023-01-06T09:58:48.601Z,8.20
2023-01-06T10:01:22.670Z,8.20
2023-01-06T10:03:52.335Z,8.30
2023-01-06T10:06:37.600Z,8.40
2023-01-06T10:09:28.490Z,8.40
2023-01-06T10:12:07.567Z,8.20
2023-01-06T10:15:13.502Z,8.40
2023-01-06T10:18:04.919Z,8.50
2023-01-06T10:20:43.234Z,8.40
2023-01-06T10:23:35.355Z,8.50
2023-01-06T10:26:13.879Z,8.60
2023-01-06T10:28:48.167Z,8.60
2023-01-06T10:31:20.927Z,8.60
2023-01-06T10:33:54.312Z,8.70
2023-01-06T10:36:35.808Z,8.70
2023-01-06T10:39:07.259Z,8.80
2023-01-06T10:41:42.588Z,8.60
2023-01-06T10:44:14.056Z,8.70
2023-01-06T10:46:45.638Z,8.80
2023-01-06T10:49:21.121Z,9.00
2023-01-06T10:51:53.612Z,9.10
2023-01-06T10:54:28.915Z,9.20
2023-01-06T10:57:02.763Z,9.20
2023-01-06T10:59:32.323Z,9.20
2023-01-06T11:02:02.666Z,9.30
2023-01-06T11:04:32.131Z,9.40
2023-01-06T11:07:04.434Z,9.40
2023-01-06T11:09:39.440Z,9.20
2023-01-06T11:12:14.987Z,9.30
2023-01-06T11:14:47.034Z,9.50
2023-01-06T11:17:17.546Z,9.60
2023-01-06T11:19:49.736Z,9.60
2023-01-06T11:22:36.677Z,9.60
2023-01-06T11:25:09.187Z,9.70
2023-01-06T11:27:38.766Z,9.80
2023-01-06T11:30:29.210Z,9.70
2023-01-06T11:32:59.471Z,9.80
2023-01-06T11:35:32.583Z,9.80
2023-01-06T11:38:02.955Z,9.70
2023-01-06T11:40:35.624Z,9.70
2023-01-06T11:43:10.851Z,9.70
2023-01-06T11:45:52.315Z,9.70
2023-01-06T11:48:25.385Z,9.70
2023-01-06T11:50:56.018Z,9.70
2023-01-06T11:53:25.604Z,9.80
2023-01-06T11:56:04.498Z,9.80
2023-01-06T11:59:02.620Z,9.80
2023-01-06T12:01:40.971Z,9.80
2023-01-06T12:04:30.479Z,9.90
2023-01-06T12:07:06.345Z,10.00
2023-01-06T12:09:38.939Z,9.80
2023-01-06T12:12:10.980Z,9.70
2023-01-06T12:14:41.675Z,9.80
2023-01-06T12:17:28.707Z,9.90
2023-01-06T12:20:07.182Z,9.90
2023-01-06T12:22:39.674Z,10.10
2023-01-06T12:25:15.259Z,10.00
2023-01-06T12:27:50.557Z,10.00
2023-01-06T12:30:58.375Z,10.00
2023-01-06T12:33:36.743Z,10.10
2023-01-06T12:36:09.531Z,10.10
2023-01-06T12:38:52.657Z,10.20
2023-01-06T12:41:37.332Z,10.30
2023-01-06T12:44:26.588Z,10.30
2023-01-06T12:47:16.357Z,10.30
2023-01-06T12:49:48.855Z,10.30
2023-01-06T12:52:29.697Z,10.40
2023-01-06T12:55:01.841Z,10.60
2023-01-06T12:57:43.141Z,10.60
2023-01-06T13:00:39.727Z,10.60
2023-01-06T13:03:29.988Z,10.80
2023-01-06T13:06:14.628Z,10.90
2023-01-06T13:08:47.479Z,10.90
2023-01-06T13:11:37.520Z,10.90
2023-01-06T13:14:15.912Z,11.00
2023-01-06T13:16:50.979Z,11.10
2023-01-06T13:19:46.677Z,11.10
2023-01-06T13:22:25.505Z,11.20
2023-01-06T13:25:13.933Z,11.30
2023-01-06T13:28:01.319Z,11.20
2023-01-06T13:30:39.570Z,11.10
2023-01-06T13:33:46.958Z,10.90
2023-01-06T13:36:37.567Z,10.90
2023-01-06T13:39:16.623Z,11.00
2023-01-06T13:41:49.186Z,11.20
2023-01-06T13:44:21.875Z,11.10
2023-01-06T13:46:54.999Z,11.00
2023-01-06T13:49:25.758Z,10.90
2023-01-06T13:51:55.601Z,11.00
2023-01-06T13:54:46.319Z,11.10
2023-01-06T13:57:25.103Z,11.20
2023-01-06T13:59:56.938Z,11.20
2023-01-06T14:02:43.147Z,11.20
2023-01-06T14:05:26.003Z,11.10
2023-01-06T14:08:02.014Z,11.10
2023-01-06T14:10:39.885Z,11.10
2023-01-06T14:13:24.926Z,11.10
2023-01-06T14:16:04.058Z,11.20
2023-01-06T14:18:37.039Z,11.20
2023-01-06T14:21:09.554Z,11.20
2023-01-06T14:23:41.332Z,11.30
2023-01-06T14:26:14.660Z,11.30
2023-01-06T14:28:43.892Z,11.20
2023-01-06T14:31:34.016Z,11.20
2023-01-06T14:34:05.625Z,11.10
2023-01-06T14:36:36.708Z,11.10
2023-01-06T14:39:09.130Z,11.10
2023-01-06T14:41:48.078Z,11.10
2023-01-06T14:44:24.121Z,11.10
2023-01-06T14:47:05.226Z,11.10
2023-01-06T14:49:37.720Z,11.10
2023-01-06T14:52:09.567Z,11.10
2023-01-06T14:54:41.800Z,11.20
2023-01-06T14:57:14.568Z,11.10
2023-01-06T14:59:44.071Z,11.10
2023-01-06T15:02:17.975Z,11.10
2023-01-06T15:04:49.247Z,11.20
2023-01-06T15:07:22.653Z,11.20
2023-01-06T15:09:53.628Z,11.20
2023-01-06T15:12:34.491Z,11.20
2023-01-06T15:15:28.186Z,11.20
2023-01-06T15:18:00.013Z,11.20
2023-01-06T15:20:32.491Z,11.20
2023-01-06T15:23:03.915Z,11.20
2023-01-06T15:25:36.401Z,11.20
2023-01-06T15:28:06.594Z,11.20
2023-01-06T15:30:36.895Z,11.20
2023-01-06T15:33:08.905Z,11.10
2023-01-06T15:35:39.589Z,11.10
2023-01-06T15:38:26.085Z,11.20
2023-01-06T15:40:55.744Z,11.10
2023-01-06T15:43:28.902Z,11.10
2023-01-06T15:46:04.478Z,11.00
2023-01-06T15:48:36.846Z,11.10
2023-01-06T15:51:17.791Z,11.10
2023-01-06T15:53:50.298Z,11.00
2023-01-06T15:56:25.917Z,11.00
2023-01-06T15:58:58.851Z,10.90
2023-01-06T16:01:28.446Z,11.00
2023-01-06T16:04:01.157Z,10.90
2023-01-06T16:06:31.073Z,10.90
2023-01-06T16:09:23.113Z,10.90
2023-01-06T16:12:07.774Z,10.80
2023-01-06T16:14:41.481Z,10.90
2023-01-06T16:17:17.225Z,10.80
2023-01-06T16:19:54.357Z,10.80
2023-01-06T16:22:27.793Z,10.80
2023-01-06T16:24:57.633Z,10.80
2023-01-06T16:27:27.819Z,10.70
2023-01-06T16:30:15.405Z,10.70
2023-01-06T16:32:46.871Z,10.80
2023-01-06T16:35:19.679Z,10.80
2023-01-06T16:37:49.179Z,10.70
2023-01-06T16:40:21.181Z,10.60
2023-01-06T16:42:53.132Z,10.60
2023-01-06T16:45:31.498Z,10.50
2023-01-06T16:48:02.087Z,10.50
2023-01-06T16:50:37.278Z,10.50
2023-01-06T16:53:19.794Z,10.40
2023-01-06T16:55:55.705Z,10.30
2023-01-06T16:58:27.850Z,10.30
2023-01-06T17:01:01.334Z,10.20
2023-01-06T17:03:33.453Z,10.10
2023-01-06T17:06:04.576Z,10.00
2023-01-06T17:08:37.168Z,10.00
2023-01-06T17:11:18.337Z,10.00
2023-01-06T17:13:53.563Z,9.90
2023-01-06T17:16:30.612Z,9.80
2023-01-06T17:19:05.442Z,9.70
2023-01-06T17:21:37.930Z,9.70
2023-01-06T17:24:13.087Z,9.70
2023-01-06T17:26:45.047Z,9.60
2023-01-06T17:29:17.105Z,9.50
2023-01-06T17:31:51.354Z,9.50
2023-01-06T17:34:25.024Z,9.40
2023-01-06T17:36:57.058Z,9.30
2023-01-06T17:39:29.567Z,9.20
2023-01-06T17:42:02.894Z,9.20
2023-01-06T17:44:45.457Z,9.10
2023-01-06T17:47:21.172Z,9.10
2023-01-06T17:50:00.189Z,9.10
2023-01-06T17:52:33.734Z,9.10
2023-01-06T17:55:29.935Z,9.00
2023-01-06T17:58:01.050Z,9.00
2023-01-06T18:00:35.544Z,9.00
2023-01-06T18:03:18.347Z,8.90
2023-01-06T18:06:02.500Z,8.90
2023-01-06T18:08:35.257Z,8.80
2023-01-06T18:11:37.599Z,8.70
2023-01-06T18:14:03.703Z,8.80
2023-01-06T18:16:36.189Z,8.70
2023-01-06T18:19:32.409Z,8.60
2023-01-06T18:22:03.850Z,8.60
2023-01-06T18:24:42.113Z,8.50
2023-01-06T18:27:29.386Z,8.50
2023-01-06T18:32:38.172Z,8.40
2023-01-06T18:35:16.697Z,8.40
2023-01-06T18:37:46.167Z,8.40
2023-01-06T18:40:19.864Z,8.40
2023-01-06T18:42:51.246Z,8.30
2023-01-06T18:45:26.946Z,8.30
2023-01-06T18:48:02.237Z,8.20
2023-01-06T18:50:52.623Z,8.20
2023-01-06T18:53:33.017Z,8.20
2023-01-06T18:56:05.139Z,8.10
2023-01-06T18:58:44.903Z,8.10
2023-01-06T19:01:23.697Z,8.10
2023-01-06T19:04:06.234Z,8.10
2023-01-06T19:06:41.717Z,8.10
2023-01-06T19:09:16.764Z,8.00
2023-01-06T19:11:48.657Z,7.90
2023-01-06T19:14:20.442Z,7.90
2023-01-06T19:16:56.665Z,7.80
2023-01-06T19:19:43.122Z,7.90
2023-01-06T19:22:22.515Z,7.80
2023-01-06T19:24:54.992Z,7.80
2023-01-06T19:27:27.582Z,7.80
2023-01-06T19:30:00.106Z,7.70
2023-01-06T19:32:33.013Z,7.70
2023-01-06T19:35:02.702Z,7.70
2023-01-06T19:37:33.216Z,7.70
2023-01-06T19:40:03.063Z,7.70
2023-01-06T19:42:32.540Z,7.60
2023-01-06T19:45:06.488Z,7.60
2023-01-06T19:47:39.687Z,7.60
2023-01-06T19:50:15.017Z,7.60
2023-01-06T19:52:44.563Z,7.60
2023-01-06T19:55:20.810Z,7.50
2023-01-06T19:57:56.781Z,7.50
2023-01-06T20:00:29.343Z,7.40
2023-01-06T20:03:03.239Z,7.40
2023-01-06T20:05:33.447Z,7.40
2023-01-06T20:08:02.883Z,7.30
2023-01-06T20:10:32.512Z,7.30
2023-01-06T20:13:02.017Z,7.20
2023-01-06T20:15:31.447Z,7.20
2023-01-06T20:18:00.862Z,7.20
2023-01-06T20:20:30.530Z,7.20
2023-01-06T20:22:59.959Z,7.20
2023-01-06T20:25:29.383Z,7.20
2023-01-06T20:27:59.624Z,7.20
2023-01-06T20:30:29.134Z,7.20
2023-01-06T20:32:59.049Z,7.20
2023-01-06T20:35:28.784Z,7.20
2023-01-06T20:37:58.222Z,7.10
2023-01-06T20:40:27.644Z,7.10
2023-01-06T20:42:57.107Z,7.10
2023-01-06T20:45:26.615Z,7.00
2023-01-06T20:47:56.042Z,7.00
2023-01-06T20:50:27.194Z,6.90
2023-01-06T20:52:56.695Z,6.90
2023-01-06T20:55:27.785Z,6.90
2023-01-06T20:57:57.210Z,6.90
2023-01-06T21:00:26.732Z,6.90
2023-01-06T21:02:56.468Z,6.90
2023-01-06T21:05:26.515Z,6.90
2023-01-06T21:07:56.143Z,6.90
2023-01-06T21:10:25.645Z,6.80
2023-01-06T21:12:56.420Z,6.80
2023-01-06T21:15:26.329Z,6.80
2023-01-06T21:17:56.783Z,6.80
2023-01-06T21:20:26.225Z,6.70
2023-01-06T21:22:55.671Z,6.70
2023-01-06T21:25:25.261Z,6.60
2023-01-06T21:27:54.739Z,6.60
2023-01-06T21:30:24.589Z,6.60
2023-01-06T21:32:55.960Z,6.60
2023-01-06T21:35:25.613Z,6.60
2023-01-06T21:37:55.049Z,6.60
2023-01-06T21:40:24.557Z,6.50
2023-01-06T21:43:09.123Z,6.50
2023-01-06T21:45:44.659Z,6.50
2023-01-06T21:48:15.039Z,6.50
2023-01-06T21:50:45.884Z,6.40
2023-01-06T21:53:16.367Z,6.50
2023-01-06T21:55:45.798Z,6.40
2023-01-06T21:58:15.242Z,6.40
2023-01-06T22:00:44.928Z,6.30
2023-01-06T22:03:14.695Z,6.30
2023-01-06T22:05:45.798Z,6.30
2023-01-06T22:08:15.546Z,6.40
2023-01-06T22:10:46.136Z,6.30
2023-01-06T22:13:18.876Z,6.30
2023-01-06T22:15:48.757Z,6.30
2023-01-06T22:18:19.234Z,6.30
2023-01-06T22:20:48.892Z,6.20
2023-01-06T22:23:21.176Z,6.30
2023-01-06T22:25:51.596Z,6.20
2023-01-06T22:28:21.414Z,6.20
2023-01-06T22:30:52.609Z,6.20
2023-01-06T22:33:22.945Z,6.20
2023-01-06T22:35:52.487Z,6.20
2023-01-06T22:38:21.905Z,6.10
2023-01-06T22:40:51.631Z,6.00
2023-01-06T22:43:21.021Z,6.00
2023-01-06T22:45:55.511Z,6.00
2023-01-06T22:48:25.545Z,6.00
2023-01-06T22:51:02.810Z,6.00
2023-01-06T22:53:34.598Z,6.00
2023-01-06T22:56:07.471Z,6.00
2023-01-06T22:58:39.306Z,6.00
2023-01-06T23:01:10.594Z,5.90
2023-01-06T23:03:40.058Z,5.90
2023-01-06T23:06:12.768Z,5.90
2023-01-06T23:08:59.014Z,5.90
2023-01-06T23:11:19.699Z,5.80
2023-01-06T23:13:49.634Z,5.80
2023-01-06T23:16:22.486Z,5.70
2023-01-06T23:18:52.105Z,5.70
2023-01-06T23:21:24.865Z,5.50
2023-01-06T23:23:55.310Z,5.60
2023-01-06T23:26:27.172Z,5.60
2023-01-06T23:28:59.990Z,5.60
2023-01-06T23:31:35.652Z,5.70
2023-01-06T23:34:08.636Z,5.50
2023-01-06T23:36:38.676Z,5.40
2023-01-06T23:39:10.311Z,5.30
2023-01-06T23:41:40.071Z,5.30
2023-01-06T23:44:11.240Z,5.40
2023-01-06T23:46:43.132Z,5.50
2023-01-06T23:49:16.471Z,5.50
2023-01-06T23:51:46.558Z,5.40
2023-01-06T23:54:16.834Z,5.40
2023-01-06T23:56:46.401Z,5.30
2023-01-06T23:59:17.095Z,5.10
